sensor_id;sensor_type;location;lat;lon;timestamp;temperature;humidity
75113;DHT22;63692;47.338;8.520;2023-03-23T05:00:19;11.60;95.60
75113;DHT22;63692;47.338;8.520;2023-03-23T05:05:14;11.60;94.90
75113;DHT22;63692;47.338;8.520;2023-03-23T05:07:41;11.60;94.90
75113;DHT22;63692;47.338;8.520;2023-03-23T05:10:10;11.60;94.80
75113;DHT22;63692;47.338;8.520;2023-03-23T05:12:37;11.70;94.40
75113;DHT22;63692;47.338;8.520;2023-03-23T05:15:04;11.70;94.60
75113;DHT22;63692;47.338;8.520;2023-03-23T05:22:30;11.60;94.60
75113;DHT22;63692;47.338;8.520;2023-03-23T05:25:01;11.60;94.40
75113;DHT22;63692;47.338;8.520;2023-03-23T05:27:33;11.70;94.60
75113;DHT22;63692;47.338;8.520;2023-03-23T05:29:58;11.60;94.80
75113;DHT22;63692;47.338;8.520;2023-03-23T05:37:28;11.60;95.60
75113;DHT22;63692;47.338;8.520;2023-03-23T05:39:58;11.60;95.80
75113;DHT22;63692;47.338;8.520;2023-03-23T05:42:26;11.60;95.60
75113;DHT22;63692;47.338;8.520;2023-03-23T06:44:19;12.70;82.70
75113;DHT22;63692;47.338;8.520;2023-03-23T07:24:12;14.30;69.10
75113;DHT22;63692;47.338;8.520;2023-03-23T07:26:41;14.50;68.90
75113;DHT22;63692;47.338;8.520;2023-03-23T07:29:08;14.50;68.60
75113;DHT22;63692;47.338;8.520;2023-03-23T07:31:34;14.50;68.10
75113;DHT22;63692;47.338;8.520;2023-03-23T07:39:23;14.50;68.20
75113;DHT22;63692;47.338;8.520;2023-03-23T07:41:49;14.50;68.80
75113;DHT22;63692;47.338;8.520;2023-03-23T07:44:15;14.50;68.90
75113;DHT22;63692;47.338;8.520;2023-03-23T07:49:09;14.60;69.80
75113;DHT22;63692;47.338;8.520;2023-03-23T07:51:35;14.60;70.00
75113;DHT22;63692;47.338;8.520;2023-03-23T07:54:04;14.60;71.30
75113;DHT22;63692;47.338;8.520;2023-03-23T07:56:30;14.60;70.50
75113;DHT22;63692;47.338;8.520;2023-03-23T07:58:56;14.70;70.70
75113;DHT22;63692;47.338;8.520;2023-03-23T08:01:22;14.70;69.20
75113;DHT22;63692;47.338;8.520;2023-03-23T08:08:43;14.80;70.60
75113;DHT22;63692;47.338;8.520;2023-03-23T08:11:09;14.90;70.40
75113;DHT22;63692;47.338;8.520;2023-03-23T08:13:35;14.90;71.00
75113;DHT22;63692;47.338;8.520;2023-03-23T08:16:01;14.90;71.00
75113;DHT22;63692;47.338;8.520;2023-03-23T08:18:30;14.90;71.60
75113;DHT22;63692;47.338;8.520;2023-03-23T08:20:57;15.00;70.30
75113;DHT22;63692;47.338;8.520;2023-03-23T08:23:22;14.90;69.50
75113;DHT22;63692;47.338;8.520;2023-03-23T08:25:48;15.00;69.60
75113;DHT22;63692;47.338;8.520;2023-03-23T08:28:14;15.00;71.20
75113;DHT22;63692;47.338;8.520;2023-03-23T08:30:40;15.00;67.30
75113;DHT22;63692;47.338;8.520;2023-03-23T08:33:07;15.00;69.80
75113;DHT22;63692;47.338;8.520;2023-03-23T08:35:34;15.10;68.10
75113;DHT22;63692;47.338;8.520;2023-03-23T08:37:59;15.20;67.00
75113;DHT22;63692;47.338;8.520;2023-03-23T08:40:26;15.20;66.50
75113;DHT22;63692;47.338;8.520;2023-03-23T08:42:52;15.20;66.90
75113;DHT22;63692;47.338;8.520;2023-03-23T08:45:20;15.40;66.50
75113;DHT22;63692;47.338;8.520;2023-03-23T08:47:47;15.40;66.70
75113;DHT22;63692;47.338;8.520;2023-03-23T08:50:20;15.40;65.40
75113;DHT22;63692;47.338;8.520;2023-03-23T08:52:48;15.50;65.50
75113;DHT22;63692;47.338;8.520;2023-03-23T08:55:14;15.50;64.90
75113;DHT22;63692;47.338;8.520;2023-03-23T08:57:40;15.50;65.30
75113;DHT22;63692;47.338;8.520;2023-03-23T09:00:10;15.50;65.00
75113;DHT22;63692;47.338;8.520;2023-03-23T09:02:44;15.60;66.10
75113;DHT22;63692;47.338;8.520;2023-03-23T09:05:10;15.60;67.80
75113;DHT22;63692;47.338;8.520;2023-03-23T09:07:38;15.60;65.80
75113;DHT22;63692;47.338;8.520;2023-03-23T09:10:04;15.60;64.60
75113;DHT22;63692;47.338;8.520;2023-03-23T09:12:30;15.60;65.20
75113;DHT22;63692;47.338;8.520;2023-03-23T09:14:56;15.70;65.80
75113;DHT22;63692;47.338;8.520;2023-03-23T09:17:22;15.70;65.20
75113;DHT22;63692;47.338;8.520;2023-03-23T09:19:48;15.70;64.90
75113;DHT22;63692;47.338;8.520;2023-03-23T09:22:13;15.70;65.00
75113;DHT22;63692;47.338;8.520;2023-03-23T09:24:40;15.70;64.90
75113;DHT22;63692;47.338;8.520;2023-03-23T09:27:07;15.80;65.70
75113;DHT22;63692;47.338;8.520;2023-03-23T09:29:32;15.80;65.30
75113;DHT22;63692;47.338;8.520;2023-03-23T09:31:58;15.80;66.60
75113;DHT22;63692;47.338;8.520;2023-03-23T09:34:23;15.90;66.70
75113;DHT22;63692;47.338;8.520;2023-03-23T09:36:49;15.80;66.40
75113;DHT22;63692;47.338;8.520;2023-03-23T09:39:15;15.80;65.30
75113;DHT22;63692;47.338;8.520;2023-03-23T09:48:45;15.90;64.60
75113;DHT22;63692;47.338;8.520;2023-03-23T09:54:27;15.90;63.10
75113;DHT22;63692;47.338;8.520;2023-03-23T09:56:54;16.00;62.60
75113;DHT22;63692;47.338;8.520;2023-03-23T09:59:35;16.00;62.90
75113;DHT22;63692;47.338;8.520;2023-03-23T10:02:17;16.00;61.70
75113;DHT22;63692;47.338;8.520;2023-03-23T10:04:44;16.00;65.20
75113;DHT22;63692;47.338;8.520;2023-03-23T10:07:18;16.00;63.20
75113;DHT22;63692;47.338;8.520;2023-03-23T10:09:46;16.00;62.90
75113;DHT22;63692;47.338;8.520;2023-03-23T10:23:02;16.20;65.20
75113;DHT22;63692;47.338;8.520;2023-03-23T10:25:35;16.30;63.00
75113;DHT22;63692;47.338;8.520;2023-03-23T10:28:09;16.20;63.70
75113;DHT22;63692;47.338;8.520;2023-03-23T10:30:45;16.30;63.40
75113;DHT22;63692;47.338;8.520;2023-03-23T10:36:13;16.30;64.00
75113;DHT22;63692;47.338;8.520;2023-03-23T10:38:56;16.40;66.30
75113;DHT22;63692;47.338;8.520;2023-03-23T10:41:23;16.40;64.40
75113;DHT22;63692;47.338;8.520;2023-03-23T10:43:49;16.50;64.50
75113;DHT22;63692;47.338;8.520;2023-03-23T10:49:23;16.50;63.10
75113;DHT22;63692;47.338;8.520;2023-03-23T10:52:24;16.50;62.50
75113;DHT22;63692;47.338;8.520;2023-03-23T10:55:18;16.60;63.30
75113;DHT22;63692;47.338;8.520;2023-03-23T10:58:00;16.60;61.80
75113;DHT22;63692;47.338;8.520;2023-03-23T11:00:27;16.60;61.60
75113;DHT22;63692;47.338;8.520;2023-03-23T11:03:00;16.70;61.50
75113;DHT22;63692;47.338;8.520;2023-03-23T11:07:57;16.70;61.80
75113;DHT22;63692;47.338;8.520;2023-03-23T11:10:48;16.80;61.60
75113;DHT22;63692;47.338;8.520;2023-03-23T11:13:15;16.90;61.20
75113;DHT22;63692;47.338;8.520;2023-03-23T11:15:43;16.90;59.70
75113;DHT22;63692;47.338;8.520;2023-03-23T11:18:22;16.80;59.90
75113;DHT22;63692;47.338;8.520;2023-03-23T11:20:54;16.80;60.10
75113;DHT22;63692;47.338;8.520;2023-03-23T11:23:24;16.80;61.70
75113;DHT22;63692;47.338;8.520;2023-03-23T11:28:52;16.80;63.20
75113;DHT22;63692;47.338;8.520;2023-03-23T11:31:22;16.80;63.30
75113;DHT22;63692;47.338;8.520;2023-03-23T11:33:58;16.90;62.10
75113;DHT22;63692;47.338;8.520;2023-03-23T11:36:35;16.90;60.80
75113;DHT22;63692;47.338;8.520;2023-03-23T11:39:02;17.00;60.80
75113;DHT22;63692;47.338;8.520;2023-03-23T11:41:34;17.00;59.80
75113;DHT22;63692;47.338;8.520;2023-03-23T11:45:17;17.10;60.00
75113;DHT22;63692;47.338;8.520;2023-03-23T12:22:45;17.60;56.90
75113;DHT22;63692;47.338;8.520;2023-03-23T12:42:27;17.60;56.50
75113;DHT22;63692;47.338;8.520;2023-03-23T12:45:04;17.70;57.40
75113;DHT22;63692;47.338;8.520;2023-03-23T12:47:44;17.70;57.80
75113;DHT22;63692;47.338;8.520;2023-03-23T12:50:30;17.70;57.80
75113;DHT22;63692;47.338;8.520;2023-03-23T12:53:20;17.80;56.20
75113;DHT22;63692;47.338;8.520;2023-03-23T12:56:16;17.80;58.10
75113;DHT22;63692;47.338;8.520;2023-03-23T12:58:48;17.80;58.40
75113;DHT22;63692;47.338;8.520;2023-03-23T13:01:26;17.80;56.90
75113;DHT22;63692;47.338;8.520;2023-03-23T13:04:02;17.80;56.60
75113;DHT22;63692;47.338;8.520;2023-03-23T13:06:50;17.90;57.10
75113;DHT22;63692;47.338;8.520;2023-03-23T13:09:44;17.90;56.70
75113;DHT22;63692;47.338;8.520;2023-03-23T13:12:13;17.90;57.40
75113;DHT22;63692;47.338;8.520;2023-03-23T13:23:30;17.90;59.60
75113;DHT22;63692;47.338;8.520;2023-03-23T13:26:00;18.00;58.90
75113;DHT22;63692;47.338;8.520;2023-03-23T13:28:31;18.00;58.20
75113;DHT22;63692;47.338;8.520;2023-03-23T13:31:04;18.00;58.00
75113;DHT22;63692;47.338;8.520;2023-03-23T13:33:36;18.00;56.70
75113;DHT22;63692;47.338;8.520;2023-03-23T13:36:13;18.00;57.30
75113;DHT22;63692;47.338;8.520;2023-03-23T13:38:47;18.00;58.60
75113;DHT22;63692;47.338;8.520;2023-03-23T13:41:16;17.90;58.60
75113;DHT22;63692;47.338;8.520;2023-03-23T13:43:43;18.00;58.20
75113;DHT22;63692;47.338;8.520;2023-03-23T13:51:36;17.90;60.50
75113;DHT22;63692;47.338;8.520;2023-03-23T13:54:30;17.80;61.00
75113;DHT22;63692;47.338;8.520;2023-03-23T13:57:01;17.80;60.90
75113;DHT22;63692;47.338;8.520;2023-03-23T14:02:26;17.80;60.90
75113;DHT22;63692;47.338;8.520;2023-03-23T14:04:45;17.80;60.80
75113;DHT22;63692;47.338;8.520;2023-03-23T14:07:20;17.80;60.50
75113;DHT22;63692;47.338;8.520;2023-03-23T14:09:46;17.90;59.30
75113;DHT22;63692;47.338;8.520;2023-03-23T14:12:23;18.00;59.70
75113;DHT22;63692;47.338;8.520;2023-03-23T14:15:04;18.10;58.70
75113;DHT22;63692;47.338;8.520;2023-03-23T14:17:37;18.10;60.60
75113;DHT22;63692;47.338;8.520;2023-03-23T14:20:05;18.20;59.60
75113;DHT22;63692;47.338;8.520;2023-03-23T14:22:36;18.20;59.40
75113;DHT22;63692;47.338;8.520;2023-03-23T14:25:18;18.30;58.30
75113;DHT22;63692;47.338;8.520;2023-03-23T14:27:46;18.20;59.80
75113;DHT22;63692;47.338;8.520;2023-03-23T14:30:18;18.20;58.80
75113;DHT22;63692;47.338;8.520;2023-03-23T14:32:44;18.20;57.70
75113;DHT22;63692;47.338;8.520;2023-03-23T14:35:30;18.20;58.90
75113;DHT22;63692;47.338;8.520;2023-03-23T14:37:56;18.20;58.20
75113;DHT22;63692;47.338;8.520;2023-03-23T14:40:23;18.20;58.60
75113;DHT22;63692;47.338;8.520;2023-03-23T14:42:51;18.10;57.70
75113;DHT22;63692;47.338;8.520;2023-03-23T14:45:20;18.10;58.10
75113;DHT22;63692;47.338;8.520;2023-03-23T14:47:55;18.00;57.80
75113;DHT22;63692;47.338;8.520;2023-03-23T14:50:40;18.00;57.80
75113;DHT22;63692;47.338;8.520;2023-03-23T14:53:25;17.90;59.00
75113;DHT22;63692;47.338;8.520;2023-03-23T14:55:53;17.90;59.00
75113;DHT22;63692;47.338;8.520;2023-03-23T14:58:24;17.80;57.70
75113;DHT22;63692;47.338;8.520;2023-03-23T15:11:03;17.50;58.50
75113;DHT22;63692;47.338;8.520;2023-03-23T15:38:26;17.20;60.00
75113;DHT22;63692;47.338;8.520;2023-03-23T15:55:58;17.00;59.80
75113;DHT22;63692;47.338;8.520;2023-03-23T16:05:46;16.90;59.70
75113;DHT22;63692;47.338;8.520;2023-03-23T16:10:42;16.90;60.40
75113;DHT22;63692;47.338;8.520;2023-03-23T16:20:30;16.80;61.20
75113;DHT22;63692;47.338;8.520;2023-03-23T16:37:52;16.80;60.90
75113;DHT22;63692;47.338;8.520;2023-03-23T16:55:02;16.60;63.60
75113;DHT22;63692;47.338;8.520;2023-03-23T16:57:28;16.60;63.70
75113;DHT22;63692;47.338;8.520;2023-03-23T17:07:22;16.50;65.50
75113;DHT22;63692;47.338;8.520;2023-03-23T17:09:48;16.40;66.90
75113;DHT22;63692;47.338;8.520;2023-03-23T17:12:14;16.40;67.40
75113;DHT22;63692;47.338;8.520;2023-03-23T17:14:40;16.40;66.80
75113;DHT22;63692;47.338;8.520;2023-03-23T17:17:06;16.40;67.50
75113;DHT22;63692;47.338;8.520;2023-03-23T17:19:32;16.30;67.80
75113;DHT22;63692;47.338;8.520;2023-03-23T17:21:57;16.30;68.70
75113;DHT22;63692;47.338;8.520;2023-03-23T17:24:23;16.30;68.80
75113;DHT22;63692;47.338;8.520;2023-03-23T17:26:49;16.20;69.20
75113;DHT22;63692;47.338;8.520;2023-03-23T17:29:15;16.20;68.60
75113;DHT22;63692;47.338;8.520;2023-03-23T17:31:40;16.20;67.60
75113;DHT22;63692;47.338;8.520;2023-03-23T17:34:06;16.20;68.40
75113;DHT22;63692;47.338;8.520;2023-03-23T17:36:32;16.10;68.10
75113;DHT22;63692;47.338;8.520;2023-03-23T17:38:57;16.10;68.50
75113;DHT22;63692;47.338;8.520;2023-03-23T17:41:23;16.10;68.60
75113;DHT22;63692;47.338;8.520;2023-03-23T17:43:49;16.10;67.90
75113;DHT22;63692;47.338;8.520;2023-03-23T17:46:14;16.10;69.90
75113;DHT22;63692;47.338;8.520;2023-03-23T17:48:40;16.00;69.70
75113;DHT22;63692;47.338;8.520;2023-03-23T17:51:06;16.00;69.60
75113;DHT22;63692;47.338;8.520;2023-03-23T17:53:33;16.00;72.30
75113;DHT22;63692;47.338;8.520;2023-03-23T17:56:00;15.90;71.60
75113;DHT22;63692;47.338;8.520;2023-03-23T17:58:27;15.90;68.70
75113;DHT22;63692;47.338;8.520;2023-03-23T18:00:56;15.90;70.30
75113;DHT22;63692;47.338;8.520;2023-03-23T18:03:22;15.80;71.50
75113;DHT22;63692;47.338;8.520;2023-03-23T18:05:48;15.80;71.40
75113;DHT22;63692;47.338;8.520;2023-03-23T18:08:16;15.80;74.20
75113;DHT22;63692;47.338;8.520;2023-03-23T18:10:42;15.60;76.20
75113;DHT22;63692;47.338;8.520;2023-03-23T18:13:07;15.60;75.40
75113;DHT22;63692;47.338;8.520;2023-03-23T18:15:34;15.60;75.00
75113;DHT22;63692;47.338;8.520;2023-03-23T18:18:02;15.60;76.40
75113;DHT22;63692;47.338;8.520;2023-03-23T18:20:29;15.50;75.60
75113;DHT22;63692;47.338;8.520;2023-03-23T18:22:56;15.50;75.90
75113;DHT22;63692;47.338;8.520;2023-03-23T18:25:22;15.50;76.90
75113;DHT22;63692;47.338;8.520;2023-03-23T18:27:48;15.40;77.60
75113;DHT22;63692;47.338;8.520;2023-03-23T18:30:14;15.40;77.70
75113;DHT22;63692;47.338;8.520;2023-03-23T18:32:40;15.40;78.00
75113;DHT22;63692;47.338;8.520;2023-03-23T18:35:08;15.40;78.30
75113;DHT22;63692;47.338;8.520;2023-03-23T18:37:35;15.40;77.70
75113;DHT22;63692;47.338;8.520;2023-03-23T18:40:04;15.40;78.20
75113;DHT22;63692;47.338;8.520;2023-03-23T18:42:30;15.40;75.80
75113;DHT22;63692;47.338;8.520;2023-03-23T18:44:56;15.40;75.70
75113;DHT22;63692;47.338;8.520;2023-03-23T18:47:24;15.30;78.20
75113;DHT22;63692;47.338;8.520;2023-03-23T18:49:50;15.30;78.70
75113;DHT22;63692;47.338;8.520;2023-03-23T18:52:20;15.20;79.20
75113;DHT22;63692;47.338;8.520;2023-03-23T18:54:46;15.10;80.50
75113;DHT22;63692;47.338;8.520;2023-03-23T18:57:12;15.10;81.80
75113;DHT22;63692;47.338;8.520;2023-03-23T18:59:38;15.00;82.10
75113;DHT22;63692;47.338;8.520;2023-03-23T19:02:04;15.00;82.50
75113;DHT22;63692;47.338;8.520;2023-03-23T19:04:30;15.00;83.40
75113;DHT22;63692;47.338;8.520;2023-03-23T19:06:58;15.00;82.50
75113;DHT22;63692;47.338;8.520;2023-03-23T19:09:24;15.10;81.50
75113;DHT22;63692;47.338;8.520;2023-03-23T19:11:50;15.00;81.40
75113;DHT22;63692;47.338;8.520;2023-03-23T19:14:16;15.00;81.10
75113;DHT22;63692;47.338;8.520;2023-03-23T19:16:42;15.00;81.70
75113;DHT22;63692;47.338;8.520;2023-03-23T19:19:08;15.00;82.00
75113;DHT22;63692;47.338;8.520;2023-03-23T19:21:35;15.00;81.80
